Sanar 4 — UBPI3 — position and weather

sailwx.info

Track history (hours):
 
Tides and Currents Weather Stations Pressure Air Temp Water Temp Dewpoint Dewpoint Depression Visibility Wind Speed Wind Dir Waves Ship Positions

Sanar 4

Last reported at 2017-Nov-30 17:00 UTC. Time now 2017-Dec-11 05:32 UTC.
Position N 45°30' E 036°44'.
Warning: this ship's position is 10 days out of date.

Length 140 m; draft 2.9 m.

Type: Ship (hazmat cat D). MMSI: 273359760.

Date/timePositionNaut miles runAvg speedWind from/ knotsBaromVisibWave heightAir tempDewpointWater temp
2017-Nov-30 17:00N 45°30' E 036°44'4 6.0
2017-Nov-30 16:23N 45°27' E 036°41'2 6.0
2017-Nov-30 16:00N 45°24' E 036°41'3 6.2
2017-Nov-30 15:30N 45°21' E 036°39'4 8.8
2017-Nov-30 15:00N 45°20' E 036°34'8 1.6
2017-Nov-30 09:54N 45°12' E 036°30'4 0.2
2017-Nov-29 15:15N 45°15' E 036°28'4 6.2
2017-Nov-29 14:41N 45°19' E 036°30'1 7.4
2017-Nov-29 14:30N 45°19' E 036°32'4 7.3
2017-Nov-29 14:00N 45°20' E 036°37'3 7.0
2017-Nov-29 13:30N 45°23' E 036°40'3 6.9
2017-Nov-29 13:00N 45°27' E 036°40'  
2017-Nov-24 15:37N 45°27' E 036°43'1 6.4
2017-Nov-24 15:29N 45°26' E 036°42'3 6.2
2017-Nov-24 15:00N 45°23' E 036°41'3 6.0
2017-Nov-24 14:30N 45°21' E 036°38'3 6.7
2017-Nov-24 14:00N 45°20' E 036°34'6 0.3
2017-Nov-23 14:34N 45°15' E 036°28'3 7.2
2017-Nov-23 14:11N 45°18' E 036°29'2 8.1
2017-Nov-23 13:56N 45°19' E 036°32'4 8.2
2017-Nov-23 13:30N 45°20' E 036°36'4 7.2
2017-Nov-23 13:00N 45°23' E 036°40'3 6.5
2017-Nov-23 12:29N 45°26' E 036°41'3 5.0
2017-Nov-23 11:51N 45°29' E 036°39'0 0.1
2017-Nov-23 10:29N 45°29' E 036°39'0 0.0
2017-Nov-23 09:38N 45°29' E 036°39'0 0.0
2017-Nov-23 09:14N 45°29' E 036°39'0 0.1
2017-Nov-23 08:55N 45°29' E 036°39'1 3.4
2017-Nov-23 08:30N 45°29' E 036°41'  
Track history (hours):
 
Tides and Currents Weather Stations Pressure Air Temp Water Temp Dewpoint Dewpoint Depression Visibility Wind Speed Wind Dir Waves Ship Positions

Sanar 4

Last reported at 2017-Nov-30 17:00 UTC. Time now 2017-Dec-11 05:32 UTC.
Position N 45°30' E 036°44'.
Warning: this ship's position is 10 days out of date.

Length 140 m; draft 2.9 m.

Type: Ship (hazmat cat D). MMSI: 273359760.

Date/timePositionNaut miles runAvg speedWind from/ knotsBaromVisibWave heightAir tempDewpointWater temp
2017-Nov-30 17:00N 45°30' E 036°44'4 6.0
2017-Nov-30 16:23N 45°27' E 036°41'2 6.0
2017-Nov-30 16:00N 45°24' E 036°41'3 6.2
2017-Nov-30 15:30N 45°21' E 036°39'4 8.8
2017-Nov-30 15:00N 45°20' E 036°34'8 1.6
2017-Nov-30 09:54N 45°12' E 036°30'4 0.2
2017-Nov-29 15:15N 45°15' E 036°28'4 6.2
2017-Nov-29 14:41N 45°19' E 036°30'1 7.4
2017-Nov-29 14:30N 45°19' E 036°32'4 7.3
2017-Nov-29 14:00N 45°20' E 036°37'3 7.0
2017-Nov-29 13:30N 45°23' E 036°40'3 6.9
2017-Nov-29 13:00N 45°27' E 036°40'  
2017-Nov-24 15:37N 45°27' E 036°43'1 6.4
2017-Nov-24 15:29N 45°26' E 036°42'3 6.2
2017-Nov-24 15:00N 45°23' E 036°41'3 6.0
2017-Nov-24 14:30N 45°21' E 036°38'3 6.7
2017-Nov-24 14:00N 45°20' E 036°34'6 0.3
2017-Nov-23 14:34N 45°15' E 036°28'3 7.2
2017-Nov-23 14:11N 45°18' E 036°29'2 8.1
2017-Nov-23 13:56N 45°19' E 036°32'4 8.2
2017-Nov-23 13:30N 45°20' E 036°36'4 7.2
2017-Nov-23 13:00N 45°23' E 036°40'3 6.5
2017-Nov-23 12:29N 45°26' E 036°41'3 5.0
2017-Nov-23 11:51N 45°29' E 036°39'0 0.1
2017-Nov-23 10:29N 45°29' E 036°39'0 0.0
2017-Nov-23 09:38N 45°29' E 036°39'0 0.0
2017-Nov-23 09:14N 45°29' E 036°39'0 0.1
2017-Nov-23 08:55N 45°29' E 036°39'1 3.4
2017-Nov-23 08:30N 45°29' E 036°41'  

Dump ship's entire track history